Terminal Aerodrome Forecast
Issued by NWS Bismarck, ND

Home | Current Version | Previous Version | Text Only | Print | Product List | Glossary Off
Versions: 1 2 3 4 5 6 7 8 9 10 11 12 13 14 15 16 17 18 19 20 21 22 23 24 25 26 27 28 29 30 31

000
FTUS43 KBIS 181339 AAB
TAFISN
TAF AMD
KISN 181339Z 1814/1912 00000KT 1SM BR OVC004
      TEMPO 1814/1815 1/4SM FG VV002
     FM181500 VRB04KT P6SM BKN008
     FM181800 33005KT P6SM BKN010
     FM182100 36007KT P6SM BKN035
     FM190400 VRB04KT P6SM BKN015=

USA.gov is the U.S. government's official web portal to all federal, state and local government web resources and services.